PHSF Airport (Bradshaw Army Airfield) Information

FAA: BSF - ICAO: PHSF

PHSF Airport Location

State Hawaii
County Hawaii
City Camp Pohakuloa
PHSF Airport is 1 miles west of Camp Pohakuloa, HI.
Latitude 19-45-36.0482N
Longitude 155-33-13.5583W
Elevation 6,190ft

PHSF Airport METARs

METAR PHSF 200258Z AUTO 28006KT 9SM CLR 16/12 A3032 RMK AO2 SLP162 T01640115 53002 $
Altimeter 30.32"
Temperature 16.4°C (61.5°F)
Wind 280° at 6KT
Clouds Skies are clear.
Visibility 9.0mi
Time observed: 2021-10-20T02:58:00Z

PHSF Airport Details

Status Operational
Activation April 1960
Ownership Military - Army
Usage Private
Chart HAWAIIAN ISLANDS
ATC on-site Yes
Beacon schedule N/A
Beacon color N/A

PHSF Airport Contacts

Owner USAR HAW
Owner address C/O POSTMASTER, SAN FRANCISCO, CA 96557
Owner phone N/A
Manager ROY SAKATA
Manager address 300 RODGERS BLVD. #12, HONOLULU, HI 96819-1897
Manager phone 808-836-6533

PHSF Airport (Bradshaw Army Airfield) Radio Frequencies

PHSF (Airport) Radio Frequencies

UNICOM N/A
Common traffic advisory frequency (CTAF) 126.3